Time;durP1;ratioP1;P1;durP2;ratioP2;P2;SDS_P1;SDS_P2;PMS_P1;PMS_P2;Temp;Humidity;BMP_temperature;BMP_pressure;BME280_temperature;BME280_humidity;BME280_pressure;Samples;Min_cycle;Max_cycle;Signal;HPM_P1;HPM_P2
2022/05/20 00:01:03;;;;;;;5.38;3.83;;;;;;;14.73;100.00;99120.22;5091481;28;20254;-64
2022/05/20 00:03:31;;;;;;;4.72;3.67;;;;;;;14.63;100.00;99116.22;5090701;28;20051;-64
2022/05/20 00:05:57;;;;;;;5.10;3.90;;;;;;;14.62;100.00;99119.69;5090886;28;20434;-64
2022/05/20 00:08:22;;;;;;;5.88;4.45;;;;;;;14.57;100.00;99121.53;5091678;28;20111;-64
2022/05/20 00:10:53;;;;;;;4.00;3.70;;;;;;;14.54;100.00;99126.78;5091418;28;20067;-64
2022/05/20 00:13:20;;;;;;;4.43;4.03;;;;;;;14.59;100.00;99125.78;5089032;28;20038;-64
2022/05/20 00:15:45;;;;;;;4.28;3.88;;;;;;;14.54;100.00;99117.31;5090299;28;20067;-64
2022/05/20 00:18:11;;;;;;;4.15;3.83;;;;;;;14.51;100.00;99119.13;5091831;28;20028;-64
2022/05/20 00:20:37;;;;;;;5.78;3.80;;;;;;;14.43;100.00;99118.47;5091389;28;20482;-64
2022/05/20 00:23:03;;;;;;;6.55;4.22;;;;;;;14.42;100.00;99112.50;5088436;28;20039;-64
2022/05/20 00:25:46;;;;;;;4.57;4.18;;;;;;;14.43;100.00;99111.56;5089825;28;20486;-64
2022/05/20 00:28:23;;;;;;;6.85;3.58;;;;;;;14.38;100.00;99116.03;5089139;28;20560;-64
2022/05/20 00:30:52;;;;;;;6.28;4.07;;;;;;;14.36;100.00;99117.81;5091138;28;20032;-64
2022/05/20 00:33:17;;;;;;;4.72;4.18;;;;;;;14.32;100.00;99121.31;5089831;28;20128;-64
2022/05/20 00:35:43;;;;;;;5.82;4.10;;;;;;;14.37;100.00;99129.81;5090053;28;20119;-64
2022/05/20 00:38:08;;;;;;;4.57;4.18;;;;;;;14.38;100.00;99122.94;5088897;28;20398;-64
2022/05/20 00:40:34;;;;;;;4.88;3.90;;;;;;;14.35;100.00;99130.69;5089895;28;20520;-63
2022/05/20 00:43:09;;;;;;;4.70;4.05;;;;;;;14.34;100.00;99135.00;5090415;28;20454;-64
2022/05/20 00:45:35;;;;;;;4.25;3.95;;;;;;;14.26;100.00;99136.94;5089765;28;20145;-64
2022/05/20 00:48:00;;;;;;;6.53;4.30;;;;;;;14.24;100.00;99132.72;5091070;28;20059;-64
2022/05/20 00:50:26;;;;;;;4.97;4.57;;;;;;;14.20;100.00;99137.09;5088633;28;20019;-63
2022/05/20 00:52:53;;;;;;;5.25;4.75;;;;;;;14.17;100.00;99143.16;5089285;28;20028;-64
2022/05/20 00:55:21;;;;;;;6.20;4.45;;;;;;;14.17;100.00;99134.63;5088532;28;20039;-63
2022/05/20 00:57:52;;;;;;;4.95;4.15;;;;;;;14.14;100.00;99147.56;5091007;28;20031;-61
2022/05/20 01:00:27;;;;;;;5.82;4.10;;;;;;;14.12;100.00;99147.63;5089279;28;20255;-64
2022/05/20 01:02:56;;;;;;;6.43;4.85;;;;;;;14.07;100.00;99143.47;5089115;28;20486;-63
2022/05/20 01:05:37;;;;;;;4.88;4.10;;;;;;;14.06;100.00;99155.50;5088241;28;20040;-63
2022/05/20 01:08:04;;;;;;;6.72;4.60;;;;;;;14.05;100.00;99163.25;5078727;28;20089;-63
2022/05/20 01:10:30;;;;;;;5.40;4.85;;;;;;;14.04;100.00;99177.91;5086460;28;20038;-63
2022/05/20 01:12:56;;;;;;;5.72;5.00;;;;;;;13.90;100.00;99154.19;5095604;22;20056;-86
2022/05/20 01:15:22;;;;;;;9.32;5.28;;;;;;;14.00;100.00;99162.56;5041667;28;20036;-86
2022/05/20 01:17:53;;;;;;;4.78;4.38;;;;;;;13.99;100.00;99168.59;5034546;28;20040;-86
2022/05/20 01:20:35;;;;;;;4.88;4.40;;;;;;;14.03;100.00;99171.06;5046991;28;20091;-84
2022/05/20 01:23:08;;;;;;;4.13;3.72;;;;;;;14.01;100.00;99171.94;5044552;28;20039;-83
2022/05/20 01:25:34;;;;;;;4.50;4.07;;;;;;;14.03;100.00;99186.53;5046032;28;20036;-84
2022/05/20 01:28:00;;;;;;;4.85;4.35;;;;;;;14.04;100.00;99174.47;5048800;28;20640;-83
2022/05/20 01:30:27;;;;;;;7.88;4.50;;;;;;;14.02;100.00;99189.13;5037641;28;20029;-85
2022/05/20 01:32:54;;;;;;;7.57;3.90;;;;;;;13.95;100.00;99203.06;5051690;28;20060;-85
2022/05/20 01:35:32;;;;;;;6.47;3.97;;;;;;;13.80;100.00;99205.97;5048049;28;20044;-84
2022/05/20 01:38:00;;;;;;;3.80;3.50;;;;;;;13.96;100.00;99225.38;5052624;28;20037;-86
2022/05/20 01:40:27;;;;;;;4.60;3.28;;;;;;;13.85;100.00;99212.72;5048992;28;20032;-87
2022/05/20 01:43:06;;;;;;;4.15;3.85;;;;;;;13.76;100.00;99197.47;5032855;28;20161;-85
2022/05/20 01:45:35;;;;;;;4.93;3.75;;;;;;;14.02;100.00;99238.09;5051225;28;20036;-84
2022/05/20 01:48:35;;;;;;;4.32;3.92;;;;;;;13.93;100.00;99262.38;5063514;28;20040;-86
2022/05/20 01:51:08;;;;;;;5.15;3.88;;;;;;;13.96;100.00;99257.13;5033934;28;20126;-85
2022/05/20 01:53:47;;;;;;;6.57;3.55;;;;;;;13.93;100.00;99230.59;5055591;28;20032;-85
2022/05/20 01:56:18;;;;;;;3.47;3.17;;;;;;;13.92;100.00;99236.66;5052357;28;20455;-85
2022/05/20 01:58:53;;;;;;;4.18;3.78;;;;;;;14.08;100.00;99253.44;5056941;28;20029;-86
2022/05/20 02:01:27;;;;;;;7.22;3.90;;;;;;;13.92;100.00;99228.91;5058790;28;20032;-83
2022/05/20 02:04:04;;;;;;;5.82;3.97;;;;;;;14.10;100.00;99259.41;5034415;28;20074;-84
2022/05/20 02:06:38;;;;;;;4.32;3.88;;;;;;;13.99;100.00;99235.59;5048938;28;20068;-86
2022/05/20 02:09:07;;;;;;;4.05;3.67;;;;;;;14.15;100.00;99257.56;5072116;28;20040;-89
2022/05/20 02:11:52;;;;;;;4.28;3.63;;;;;;;14.01;100.00;99218.34;5065517;28;20041;-86
2022/05/20 02:14:32;;;;;;;;;;;;;;;14.27;100.00;99246.09;5053642;28;20120;-83
2022/05/20 02:17:06;;;;;;;4.30;3.72;;;;;;;14.30;100.00;99233.97;5074209;28;19912;-86
2022/05/20 02:19:53;;;;;;;4.32;3.55;;;;;;;14.36;100.00;99227.88;5074116;28;20051;-85
2022/05/20 02:22:24;;;;;;;5.72;3.60;;;;;;;14.35;100.00;99234.75;5062060;28;20590;-83
2022/05/20 02:24:50;;;;;;;3.90;3.50;;;;;;;14.27;100.00;99212.59;5049229;28;20025;-82
2022/05/20 02:27:24;;;;;;;3.72;3.42;;;;;;;14.54;100.00;99228.28;5052642;28;20103;-83
2022/05/20 02:30:06;;;;;;;4.15;3.53;;;;;;;15.07;100.00;99233.72;5052699;28;20071;-85
2022/05/20 02:32:39;;;;;;;6.03;3.55;;;;;;;15.83;100.00;99216.88;5068040;28;20036;-83
2022/05/20 02:35:09;;;;;;;5.13;3.70;;;;;;;15.97;100.00;99213.88;5054500;28;20487;-83
2022/05/20 02:37:36;;;;;;;3.60;3.35;;;;;;;16.66;100.00;99209.91;5057530;28;20045;-83
2022/05/20 02:40:05;;;;;;;5.55;3.78;;;;;;;17.16;100.00;99208.97;5057719;28;20024;-82
2022/05/20 02:42:33;;;;;;;3.50;3.20;;;;;;;17.48;100.00;99201.75;5050584;28;20048;-83
2022/05/20 02:44:59;;;;;;;3.58;3.28;;;;;;;17.75;100.00;99193.78;5060622;28;20029;-83
2022/05/20 02:47:31;;;;;;;8.52;3.20;;;;;;;17.91;100.00;99199.19;5055846;28;20729;-83
2022/05/20 02:50:05;;;;;;;3.58;3.28;;;;;;;17.94;100.00;99206.03;5049782;28;20037;-83
2022/05/20 02:52:31;;;;;;;3.55;3.25;;;;;;;18.04;100.00;99213.38;5051946;28;20041;-83
2022/05/20 02:54:57;;;;;;;3.65;3.35;;;;;;;17.95;100.00;99203.38;5052788;28;20028;-84
2022/05/20 02:57:23;;;;;;;6.68;3.25;;;;;;;17.89;100.00;99216.59;5053951;28;20041;-83
2022/05/20 03:05:18;;;;;;;7.15;3.58;;;;;;;18.55;100.00;99209.59;5050661;28;20036;-82
2022/05/20 03:07:43;;;;;;;3.60;3.30;;;;;;;18.70;100.00;99195.97;5055890;28;20056;-86
2022/05/20 03:10:09;;;;;;;3.38;3.17;;;;;;;18.83;98.90;99175.50;5044764;28;20026;-86
2022/05/20 03:12:35;;;;;;;3.05;2.85;;;;;;;18.98;96.78;99180.88;5049801;28;20037;-86
2022/05/20 03:15:05;;;;;;;4.03;3.17;;;;;;;19.18;94.56;99180.81;5058078;28;20029;-86
2022/05/20 03:17:32;;;;;;;3.08;2.78;;;;;;;19.26;93.63;99185.69;5036180;28;20037;-89
2022/05/20 03:21:01;;;;;;;;;;;;;;;;;;;;;
2022/05/20 03:23:29;;;;;;;6.28;3.95;;;;;;;19.22;93.20;99183.28;5052782;28;20109;-85
2022/05/20 03:25:54;;;;;;;4.03;3.63;;;;;;;19.20;93.02;99175.56;5058908;28;20507;-87
2022/05/20 03:28:25;;;;;;;3.88;3.58;;;;;;;19.29;92.56;99176.91;5057542;28;20159;-91
2022/05/20 03:30:51;;;;;;;9.20;3.90;;;;;;;19.29;92.75;99172.53;5055042;28;20044;-88
2022/05/20 03:33:16;;;;;;;7.18;3.72;;;;;;;19.37;91.91;99169.59;5056691;28;20439;-87
2022/05/20 03:35:42;;;;;;;4.82;4.05;;;;;;;19.67;91.30;99178.59;5054362;28;20117;-87
2022/05/20 03:38:08;;;;;;;4.40;3.80;;;;;;;19.73;90.23;99183.50;5048497;28;20029;-88
2022/05/20 03:40:34;;;;;;;4.32;3.80;;;;;;;19.75;90.13;99176.47;5051681;28;20032;-88
2022/05/20 03:43:00;;;;;;;4.22;3.83;;;;;;;19.70;90.17;99168.03;5054220;28;20024;-87
2022/05/20 03:45:25;;;;;;;4.63;3.88;;;;;;;19.62;91.14;99177.97;5059279;28;20086;-87
2022/05/20 03:47:53;;;;;;;5.78;3.70;;;;;;;19.41;94.64;99174.56;5055579;28;20396;-87
2022/05/20 03:50:19;;;;;;;6.15;3.90;;;;;;;19.23;96.89;99165.00;5057075;28;20057;-87
2022/05/20 03:52:46;;;;;;;4.03;3.70;;;;;;;19.22;99.59;99184.16;5053870;28;20033;-89
2022/05/20 03:55:12;;;;;;;4.22;3.47;;;;;;;19.05;99.02;99173.66;5053772;28;20037;-88
2022/05/20 03:57:38;;;;;;;5.45;3.88;;;;;;;18.89;98.97;99165.66;5059692;28;20045;-87
2022/05/20 04:00:05;;;;;;;5.00;3.90;;;;;;;18.68;100.00;99166.59;5056329;28;20092;-90
2022/05/20 04:02:30;;;;;;;5.38;3.80;;;;;;;18.39;100.00;99165.22;5062123;28;20036;-91
2022/05/20 04:04:56;;;;;;;4.47;4.07;;;;;;;18.43;100.00;99178.91;5059057;28;20464;-87
2022/05/20 04:07:28;;;;;;;4.13;3.72;;;;;;;18.26;100.00;99161.44;5069644;28;20037;-91
2022/05/20 04:09:53;;;;;;;5.25;3.72;;;;;;;18.46;100.00;99195.22;5063139;28;20041;-88
2022/05/20 04:12:24;;;;;;;4.25;3.60;;;;;;;18.28;100.00;99162.25;5037589;28;20040;-85
2022/05/20 04:14:50;;;;;;;4.60;4.20;;;;;;;18.32;100.00;99184.56;5034115;28;20036;-86
2022/05/20 04:17:17;;;;;;;4.63;3.80;;;;;;;18.53;100.00;99203.63;5049342;28;20037;-87
2022/05/20 04:19:44;;;;;;;6.88;3.78;;;;;;;18.48;100.00;99184.78;5053779;28;20029;-86
2022/05/20 04:22:13;;;;;;;4.07;3.60;;;;;;;18.51;100.00;99182.03;5050345;28;20035;-86
2022/05/20 04:24:40;;;;;;;4.28;3.97;;;;;;;18.60;100.00;99202.47;5053758;28;20033;-90
2022/05/20 04:27:06;;;;;;;3.53;3.33;;;;;;;18.60;100.00;99211.09;5057531;28;20047;-88
2022/05/20 04:29:32;;;;;;;9.05;4.00;;;;;;;18.51;100.00;99195.88;5051703;28;20477;-84
2022/05/20 04:31:58;;;;;;;6.03;4.10;;;;;;;18.59;100.00;99218.94;5065426;28;20084;-86
2022/05/20 04:34:24;;;;;;;8.02;4.43;;;;;;;18.28;100.00;99193.41;5044777;28;20156;-87
2022/05/20 04:36:49;;;;;;;7.70;5.07;;;;;;;18.33;100.00;99190.63;5052264;28;20021;-86
2022/05/20 04:39:17;;;;;;;8.15;4.85;;;;;;;18.42;100.00;99198.84;5050605;28;20036;-86
2022/05/20 04:47:25;;;;;;;4.87;3.97;;;;;;;18.57;100.00;99238.97;5050683;28;20071;-84
2022/05/20 04:49:51;;;;;;;16.88;11.73;;;;;;;18.56;100.00;99225.13;5031652;28;20044;-86
2022/05/20 04:52:16;;;;;;;5.18;4.68;;;;;;;18.50;100.00;99212.34;5038236;28;20029;-86
2022/05/20 04:54:51;;;;;;;6.70;4.07;;;;;;;18.78;100.00;99232.84;5034532;28;20033;-86
2022/05/20 04:57:30;;;;;;;12.10;4.40;;;;;;;18.67;99.04;99217.72;5051531;28;20055;-85
2022/05/20 05:00:00;;;;;;;7.22;5.03;;;;;;;18.94;97.20;99241.69;5053774;28;20053;-84
2022/05/20 05:02:26;;;;;;;5.57;4.28;;;;;;;18.85;93.81;99234.28;5050636;28;20136;-84
2022/05/20 05:04:52;;;;;;;4.18;3.80;;;;;;;19.01;92.37;99252.66;5051449;28;20518;-84
2022/05/20 05:07:21;;;;;;;7.57;4.30;;;;;;;19.05;90.74;99255.03;5047313;28;20033;-87
2022/05/20 05:09:48;;;;;;;9.68;3.78;;;;;;;19.18;87.12;99251.00;5065365;28;20036;-84
2022/05/20 05:12:15;;;;;;;6.00;3.92;;;;;;;18.94;85.46;99244.28;5022014;28;20384;-84
2022/05/20 05:14:45;;;;;;;10.05;4.45;;;;;;;19.12;85.79;99248.69;5031955;28;20053;-85
2022/05/20 05:17:13;;;;;;;5.90;4.07;;;;;;;19.18;78.80;99261.41;5034290;28;20033;-84
2022/05/20 05:19:41;;;;;;;3.65;3.35;;;;;;;19.35;78.49;99258.06;5016457;28;20060;-84
2022/05/20 05:22:08;;;;;;;6.63;3.47;;;;;;;19.63;76.09;99264.66;5020927;28;20030;-83
2022/05/20 05:24:34;;;;;;;4.05;3.63;;;;;;;19.61;72.26;99275.13;5024003;28;20033;-83
2022/05/20 05:27:00;;;;;;;5.38;3.50;;;;;;;19.77;69.70;99264.88;5034321;28;20022;-83
2022/05/20 05:29:26;;;;;;;4.40;3.20;;;;;;;19.88;67.66;99273.88;5030667;28;20091;-84
2022/05/20 05:31:52;;;;;;;4.70;3.70;;;;;;;19.88;65.40;99263.47;5031217;28;20033;-84
2022/05/20 05:34:18;;;;;;;4.40;3.78;;;;;;;20.07;65.69;99272.09;5019272;28;20041;-84
2022/05/20 05:36:43;;;;;;;5.97;3.53;;;;;;;19.80;67.36;99275.16;5036994;28;20496;-84
2022/05/20 05:39:09;;;;;;;4.30;3.53;;;;;;;19.76;68.52;99284.00;5034512;28;20492;-84
2022/05/20 05:41:35;;;;;;;7.60;3.60;;;;;;;19.75;67.48;99277.09;5024605;28;20037;-84
2022/05/20 05:44:03;;;;;;;5.05;3.33;;;;;;;19.85;68.57;99294.00;5046506;28;20017;-84
2022/05/20 05:46:30;;;;;;;4.55;3.25;;;;;;;19.86;69.34;99295.69;5051880;28;20049;-89
2022/05/20 05:48:56;;;;;;;5.97;3.83;;;;;;;19.95;69.58;99288.28;5037626;28;20031;-85
2022/05/20 05:51:24;;;;;;;10.65;3.67;;;;;;;19.92;68.70;99278.03;5040299;28;20029;-85
2022/05/20 05:53:50;;;;;;;5.70;4.32;;;;;;;19.94;68.04;99264.94;5043078;28;20040;-82
2022/05/20 05:56:15;;;;;;;5.18;3.60;;;;;;;20.05;68.68;99280.91;5045796;28;20037;-86
2022/05/20 05:58:40;;;;;;;4.25;3.95;;;;;;;20.16;69.43;99277.78;5048780;28;20045;-89
2022/05/20 06:01:10;;;;;;;10.85;4.00;;;;;;;20.22;67.66;99278.34;5039694;28;20033;-87
2022/05/20 06:03:35;;;;;;;6.53;3.50;;;;;;;20.32;67.50;99263.16;5010538;28;20037;-83
2022/05/20 06:06:02;;;;;;;5.13;3.53;;;;;;;20.64;68.67;99282.41;5039209;28;20033;-85
2022/05/20 06:08:28;;;;;;;9.23;3.55;;;;;;;20.71;71.27;99295.06;5028369;28;20041;-85
2022/05/20 06:10:53;;;;;;;5.22;3.80;;;;;;;20.65;70.92;99276.28;5041813;28;20156;-85
2022/05/20 06:13:24;;;;;;;7.68;3.78;;;;;;;20.89;66.68;99281.09;5044594;28;20052;-85
2022/05/20 06:15:50;;;;;;;6.20;3.60;;;;;;;21.05;65.59;99301.22;5059668;28;20048;-85
2022/05/20 06:18:16;;;;;;;4.15;3.60;;;;;;;21.04;68.50;99294.31;5074382;28;20037;-87
2022/05/20 06:20:41;;;;;;;4.47;3.88;;;;;;;21.08;68.06;99288.84;5051822;28;20112;-85
2022/05/20 06:23:07;;;;;;;4.10;3.70;;;;;;;21.04;68.85;99299.50;5049883;28;20030;-84
2022/05/20 06:25:37;;;;;;;4.05;3.65;;;;;;;21.01;67.43;99291.81;5042204;28;20072;-83
2022/05/20 06:28:10;;;;;;;4.78;3.95;;;;;;;20.95;69.83;99301.66;5067731;28;20037;-84
2022/05/20 06:30:35;;;;;;;4.10;3.70;;;;;;;20.94;72.51;99294.75;5053436;28;20052;-84
2022/05/20 06:33:02;;;;;;;5.72;3.50;;;;;;;21.18;73.76;99297.06;5052593;28;20037;-85
2022/05/20 06:40:57;;;;;;;4.22;3.72;;;;;;;21.50;68.82;99274.53;5055957;28;20059;-84
2022/05/20 06:43:26;;;;;;;3.70;3.08;;;;;;;21.52;68.02;99289.16;5048449;28;20033;-86
2022/05/20 06:45:56;;;;;;;5.90;3.30;;;;;;;21.46;68.54;99297.34;5048847;28;20155;-85
2022/05/20 06:48:22;;;;;;;4.18;3.35;;;;;;;21.33;72.03;99299.75;5058039;28;20021;-85
2022/05/20 06:50:47;;;;;;;3.15;2.70;;;;;;;21.20;74.07;99275.22;5028050;28;20037;-85
2022/05/20 06:53:14;;;;;;;7.03;4.03;;;;;;;21.31;71.20;99295.50;5031928;28;20522;-85
2022/05/20 06:55:41;;;;;;;4.35;3.20;;;;;;;21.28;72.35;99273.03;5052504;28;20102;-86
2022/05/20 06:58:10;;;;;;;3.80;3.40;;;;;;;21.58;69.73;99296.69;5041102;28;20029;-84
2022/05/20 07:00:35;;;;;;;3.75;3.53;;;;;;;21.52;69.55;99309.19;5042376;28;20119;-85
2022/05/20 07:03:00;;;;;;;4.93;4.40;;;;;;;21.39;73.48;99301.16;5065734;28;20068;-89
2022/05/20 07:05:27;;;;;;;3.90;3.60;;;;;;;21.62;70.17;99295.59;5069946;28;20028;-86
2022/05/20 07:07:53;;;;;;;5.18;3.47;;;;;;;21.69;67.10;99277.81;5052562;28;20048;-86
2022/05/20 07:10:20;;;;;;;3.97;3.67;;;;;;;21.65;65.81;99291.97;5040246;28;20036;-86
2022/05/20 07:13:13;;;;;;;4.40;3.33;;;;;;;21.86;64.74;99302.09;5070313;28;20055;-85
2022/05/20 07:15:39;;;;;;;3.78;3.47;;;;;;;21.98;65.39;99300.63;5052421;28;20029;-84
2022/05/20 07:18:04;;;;;;;5.70;3.80;;;;;;;22.13;64.30;99291.09;5057733;28;20048;-85
2022/05/20 07:21:25;;;;;;;4.35;3.80;;;;;;;22.36;66.29;99301.13;5069042;28;20056;-86
2022/05/20 07:27:17;;;;;;;5.18;3.85;;;;;;;22.65;63.81;99302.94;4989927;28;20560;-60
2022/05/20 07:29:43;;;;;;;5.85;4.03;;;;;;;22.91;63.33;99303.22;4997414;28;20030;-60
2022/05/20 07:32:09;;;;;;;6.07;4.88;;;;;;;23.16;64.48;99293.00;4998854;28;20125;-60
2022/05/20 07:34:35;;;;;;;4.03;3.65;;;;;;;23.33;62.83;99305.06;4993494;28;20091;-61
2022/05/20 07:37:01;;;;;;;5.38;3.90;;;;;;;23.47;62.81;99299.84;4992966;28;20038;-61
2022/05/20 07:39:26;;;;;;;6.50;4.15;;;;;;;23.67;62.06;99310.81;4989891;28;20049;-61
2022/05/20 07:41:52;;;;;;;10.65;4.30;;;;;;;23.59;61.87;99297.31;4997430;28;20506;-61
2022/05/20 07:44:18;;;;;;;6.38;4.10;;;;;;;23.74;63.23;99292.94;4997621;28;20449;-61
2022/05/20 07:46:44;;;;;;;4.50;3.97;;;;;;;23.92;63.54;99304.88;4991851;28;20041;-61
2022/05/20 07:49:09;;;;;;;5.93;4.00;;;;;;;24.01;63.51;99300.84;4991540;28;20026;-61
2022/05/20 07:51:39;;;;;;;4.53;3.60;;;;;;;24.27;63.42;99304.47;4990787;28;20483;-61
2022/05/20 07:54:14;;;;;;;4.22;3.63;;;;;;;24.19;64.85;99291.84;4998166;28;20561;-60
2022/05/20 07:56:44;;;;;;;4.43;4.00;;;;;;;24.25;63.22;99295.84;4993254;28;20407;-61
2022/05/20 07:59:14;;;;;;;4.90;3.63;;;;;;;24.39;60.93;99283.56;4992155;28;20049;-61
2022/05/20 08:01:42;;;;;;;3.97;3.55;;;;;;;24.14;63.44;99273.75;4996435;28;20035;-61
2022/05/20 08:07:01;;;;;;;6.88;4.30;;;;;;;24.23;62.12;99279.41;4997957;28;20040;-61
2022/05/20 08:09:28;;;;;;;5.68;4.53;;;;;;;24.33;62.46;99270.81;4998025;28;20029;-61
2022/05/20 08:11:53;;;;;;;7.25;3.95;;;;;;;24.50;61.71;99278.44;4997708;28;20061;-62
2022/05/20 08:14:19;;;;;;;6.35;3.70;;;;;;;24.84;61.17;99282.28;4997559;28;20158;-61
2022/05/20 08:16:44;;;;;;;3.30;3.10;;;;;;;25.18;60.67;99280.88;4997188;28;20030;-61
2022/05/20 08:19:10;;;;;;;3.85;3.28;;;;;;;25.42;57.90;99273.94;4997530;28;20035;-61
2022/05/20 08:21:36;;;;;;;4.38;3.72;;;;;;;25.67;56.87;99282.78;4991306;28;20448;-62
2022/05/20 08:24:01;;;;;;;5.65;4.05;;;;;;;25.84;58.87;99271.91;4992662;28;20042;-61
2022/05/20 08:26:27;;;;;;;6.97;3.92;;;;;;;26.02;61.10;99272.38;5008837;28;20066;-65
2022/05/20 08:28:52;;;;;;;5.78;3.78;;;;;;;26.31;57.34;99277.22;5018101;28;20036;-62
2022/05/20 08:31:18;;;;;;;4.00;3.65;;;;;;;26.52;56.83;99274.81;5016984;28;20116;-61
2022/05/20 08:33:44;;;;;;;6.88;4.18;;;;;;;26.28;55.06;99274.84;5015994;28;20036;-62
2022/05/20 08:36:09;;;;;;;6.38;3.97;;;;;;;26.20;55.87;99273.72;5016830;28;20481;-62
2022/05/20 08:38:35;;;;;;;7.50;4.05;;;;;;;26.44;55.45;99271.91;5016232;28;20034;-62
2022/05/20 08:41:01;;;;;;;5.65;4.07;;;;;;;26.59;57.46;99272.59;5017561;28;20034;-62
2022/05/20 08:43:32;;;;;;;8.05;4.15;;;;;;;26.84;56.90;99256.63;5017089;28;20509;-62
2022/05/20 08:45:59;;;;;;;10.13;3.88;;;;;;;27.03;55.08;99258.75;5017092;28;20072;-62
2022/05/20 08:48:25;;;;;;;6.82;3.92;;;;;;;27.29;53.09;99257.56;5017525;28;20025;-67
2022/05/20 08:50:56;;;;;;;7.65;4.88;;;;;;;27.54;52.56;99243.38;5016366;28;20033;-62
2022/05/20 08:53:35;;;;;;;7.82;4.35;;;;;;;27.56;52.65;99251.97;5015826;28;20034;-62
2022/05/20 08:56:05;;;;;;;4.97;4.32;;;;;;;27.23;53.84;99239.63;5016044;28;20502;-68
2022/05/20 08:58:31;;;;;;;4.88;4.47;;;;;;;27.24;55.56;99250.00;5012657;28;20030;-61
2022/05/20 09:00:57;;;;;;;12.43;5.07;;;;;;;26.92;56.30;99235.03;5009157;28;20443;-62
2022/05/20 09:03:23;;;;;;;5.65;4.55;;;;;;;26.82;56.96;99251.47;5009323;28;20406;-62
2022/05/20 09:05:49;;;;;;;8.23;4.95;;;;;;;26.69;57.66;99244.66;5014072;28;20324;-62
2022/05/20 09:08:14;;;;;;;6.47;4.60;;;;;;;26.66;58.44;99250.13;5016720;28;20030;-62
2022/05/20 09:10:46;;;;;;;6.00;4.18;;;;;;;26.78;58.35;99244.75;5011152;28;20101;-63
2022/05/20 09:13:22;;;;;;;6.75;5.10;;;;;;;26.76;56.54;99237.94;5011110;28;20041;-62
2022/05/20 09:16:03;;;;;;;6.22;4.57;;;;;;;26.81;55.51;99248.97;5014711;28;20034;-64
2022/05/20 09:18:28;;;;;;;6.15;4.35;;;;;;;26.78;55.20;99246.56;5017005;28;20040;-62
2022/05/20 09:20:55;;;;;;;7.75;4.70;;;;;;;26.99;55.17;99241.50;5015789;28;20042;-63
2022/05/20 09:23:22;;;;;;;5.43;4.93;;;;;;;27.17;56.21;99242.72;4998293;28;20082;-62
2022/05/20 09:26:07;;;;;;;7.07;4.47;;;;;;;27.24;52.94;99238.66;5014808;28;20060;-64
2022/05/20 09:28:40;;;;;;;;;;;;;;;27.07;52.78;99241.75;5014924;28;20030;-63
2022/05/20 09:31:34;;;;;;;4.72;4.32;;;;;;;26.95;53.97;99240.88;5016212;28;20061;-63
2022/05/20 09:34:14;;;;;;;5.53;5.03;;;;;;;27.17;55.35;99229.53;5016681;28;20042;-62
2022/05/20 09:36:56;;;;;;;6.97;4.63;;;;;;;27.39;54.74;99234.81;5015072;28;20026;-64
2022/05/20 09:39:27;;;;;;;7.13;4.57;;;;;;;27.46;55.91;99222.00;5016118;28;20041;-63
2022/05/20 09:41:57;;;;;;;4.25;4.05;;;;;;;27.79;53.26;99216.75;5015254;28;20045;-63
2022/05/20 09:44:32;;;;;;;7.60;4.88;;;;;;;27.98;54.17;99226.63;5015726;28;20072;-64
2022/05/20 09:47:24;;;;;;;5.53;4.38;;;;;;;28.01;51.63;99232.47;5016165;28;20049;-63
2022/05/20 09:49:59;;;;;;;5.40;4.93;;;;;;;27.99;50.43;99212.50;4997960;28;20030;-64
2022/05/20 09:52:47;;;;;;;;;;;;;;;28.20;49.63;99220.47;5015892;28;20037;-63
2022/05/20 09:55:15;;;;;;;5.40;4.45;;;;;;;28.04;49.69;99221.72;4998111;28;19925;-64
2022/05/20 09:57:46;;;;;;;6.80;4.43;;;;;;;28.15;49.67;99205.03;5016193;28;20026;-64
2022/05/20 10:00:19;;;;;;;4.93;4.45;;;;;;;28.23;49.41;99204.41;5016044;28;20044;-64
2022/05/20 10:03:04;;;;;;;10.60;5.07;;;;;;;28.34;49.47;99209.63;5015392;28;20033;-64
2022/05/20 10:05:50;;;;;;;4.47;4.10;;;;;;;28.48;50.18;99198.75;5014587;28;20045;-64
2022/05/20 10:08:34;;;;;;;9.55;4.53;;;;;;;28.76;51.32;99192.88;5015371;28;20088;-64
2022/05/20 10:11:16;;;;;;;6.90;4.85;;;;;;;28.90;49.27;99196.97;5015289;28;20033;-63
2022/05/20 10:13:54;;;;;;;5.32;4.72;;;;;;;28.98;47.55;99183.97;5014944;28;20045;-64
2022/05/20 10:16:20;;;;;;;5.45;4.95;;;;;;;29.02;49.76;99178.31;5016720;28;20040;-64
2022/05/20 10:19:23;;;;;;;5.18;4.78;;;;;;;28.87;48.52;99184.88;5015592;28;20391;-64
2022/05/20 10:21:53;;;;;;;5.30;4.95;;;;;;;28.94;48.24;99174.66;4989597;28;20032;-65
2022/05/20 10:24:38;;;;;;;6.95;5.20;;;;;;;29.15;49.37;99178.09;5008669;28;20105;-64
2022/05/20 10:27:36;;;;;;;6.13;5.57;;;;;;;29.20;47.61;99175.84;5009281;28;20092;-64
2022/05/20 10:33:08;;;;;;;6.68;5.80;;;;;;;29.22;47.90;99173.09;5009838;28;20040;-64
2022/05/20 10:35:49;;;;;;;5.20;4.90;;;;;;;29.34;46.83;99170.25;5007790;28;20076;-64
2022/05/20 10:38:37;;;;;;;4.82;4.43;;;;;;;29.38;45.92;99157.59;5009549;28;20038;-63
2022/05/20 10:41:18;;;;;;;5.05;4.60;;;;;;;29.48;45.37;99161.13;5014614;28;20033;-62
2022/05/20 10:50:24;;;;;;;4.80;4.40;;;;;;;29.35;47.81;99156.06;5008165;28;20048;-63
2022/05/20 10:53:15;;;;;;;5.15;4.85;;;;;;;29.23;46.69;99154.47;4990768;28;20362;-63
2022/05/20 10:56:27;;;;;;;6.32;4.97;;;;;;;29.53;46.57;99158.91;5007941;28;20072;-63
2022/05/20 10:59:17;;;;;;;6.90;5.15;;;;;;;29.69;45.38;99153.09;4987353;28;20041;-63
2022/05/20 11:02:06;;;;;;;5.80;5.18;;;;;;;29.67;45.49;99147.91;5019942;28;20095;-63
2022/05/20 11:04:49;;;;;;;4.78;4.47;;;;;;;29.94;45.72;99144.66;5018146;28;20110;-62
2022/05/20 11:07:23;;;;;;;4.88;4.57;;;;;;;29.85;44.65;99145.44;5019534;28;20065;-63
2022/05/20 11:10:24;;;;;;;5.15;4.85;;;;;;;29.80;45.35;99143.22;5019444;28;20363;-62
2022/05/20 11:13:07;;;;;;;5.13;4.75;;;;;;;30.13;45.18;99135.88;5015540;28;20435;-63
2022/05/20 11:16:05;;;;;;;6.13;4.32;;;;;;;30.16;44.19;99131.16;5018981;28;20037;-63
2022/05/20 11:19:03;;;;;;;5.50;5.10;;;;;;;30.45;45.42;99125.00;5016152;28;20546;-63
2022/05/20 11:21:53;;;;;;;5.60;5.20;;;;;;;30.69;44.77;99120.06;4975784;28;20050;-63
2022/05/20 11:24:37;;;;;;;5.47;4.70;;;;;;;30.83;43.21;99120.44;5016535;28;20474;-62
2022/05/20 11:27:14;;;;;;;5.68;5.18;;;;;;;31.11;41.95;99117.81;5017077;28;20049;-62
2022/05/20 11:30:17;;;;;;;4.78;4.47;;;;;;;31.14;41.03;99117.56;5003383;28;20061;-63
2022/05/20 11:32:54;;;;;;;5.88;5.47;;;;;;;31.10;43.06;99118.81;5016728;28;20042;-63
2022/05/20 11:35:41;;;;;;;5.13;4.72;;;;;;;31.23;42.49;99120.13;5018260;28;20045;-63
2022/05/20 11:38:50;;;;;;;6.40;6.00;;;;;;;30.95;42.33;99112.28;5016140;28;20072;-63
2022/05/20 11:41:47;;;;;;;7.20;5.47;;;;;;;31.03;41.59;99100.03;5010144;28;20129;-63
2022/05/20 11:44:42;;;;;;;6.30;5.20;;;;;;;31.12;41.14;99095.66;5011629;28;20042;-63
2022/05/20 11:47:08;;;;;;;;;;;;;;;31.29;41.85;99102.81;5018354;28;20034;-62
2022/05/20 11:49:40;;;;;;;5.55;5.15;;;;;;;31.35;40.16;99096.94;5017992;28;19929;-62
2022/05/20 11:52:20;;;;;;;6.43;5.90;;;;;;;31.29;40.47;99094.88;5017348;28;20033;-62
2022/05/20 11:55:42;;;;;;;5.53;5.15;;;;;;;31.25;40.45;99085.53;5010949;28;20530;-62
2022/05/20 11:58:17;;;;;;;7.90;5.20;;;;;;;31.24;40.67;99078.56;4921589;29;20646;-62
2022/05/20 12:00:43;;;;;;;5.15;4.80;;;;;;;30.90;41.40;99088.91;4924549;29;20055;-62
2022/05/20 12:03:21;;;;;;;5.22;4.82;;;;;;;30.74;41.39;99086.88;4928772;29;20052;-62
2022/05/20 12:05:48;;;;;;;5.68;5.28;;;;;;;30.77;41.82;99077.78;4927658;29;20078;-62
2022/05/20 12:08:44;;;;;;;5.70;5.20;;;;;;;30.59;41.45;99071.63;4928214;29;20073;-62
2022/05/20 12:11:37;;;;;;;4.97;4.50;;;;;;;30.85;41.25;99073.44;4928354;29;20040;-62
2022/05/20 12:14:08;;;;;;;5.75;5.35;;;;;;;30.80;40.34;99078.38;4924803;29;20044;-63
2022/05/20 12:16:54;;;;;;;5.40;4.95;;;;;;;30.85;41.19;99067.34;4920356;29;20035;-62
2022/05/20 12:25:36;;;;;;;5.50;5.00;;;;;;;31.12;39.85;99059.41;4926155;29;20070;-62
2022/05/20 12:28:26;;;;;;;5.22;4.85;;;;;;;31.24;40.50;99046.75;4921254;29;20036;-63
2022/05/20 12:31:04;;;;;;;4.70;4.30;;;;;;;31.62;41.29;99056.28;4928936;28;20048;-63
2022/05/20 12:33:49;;;;;;;5.32;4.82;;;;;;;31.68;41.38;99039.78;4994565;28;20120;-63